Weather at Shahid Asiyaee Airport

Public forecast

Using degrees Celsius for public forecast. Weather courtesy of forecast.io.

Current aviation weather report (METAR) for Shahid Asiyaee Airport

Report is more than 6 hours old.

Retrieved 2021/04/30 04:54 UTC (3 months ago):

OIAI 300454Z 33002KT CAVOK 30/03 Q1008

Closest aviation forecast (TAF) to Shahid Asiyaee Airport

Closest forecast is Lieutenant General Qasem Soleimani International Airport, 47.6 nm (88.1 km) SSW. Retrieved 2021/07/23 12:28 UTC (4 hours ago):

TAF OIAW 231110Z 2312/2418 28008KT 8000 NSC TEMPO 2312/2316 30018KT TEMPO 2412/2418 30018KT